Time,TemperatureF,DewpointF,PressureIn,WindDirection,WindDirectionDegrees,WindSpeedMPH,WindSpeedGustMPH,Humidity,HourlyPrecipIn,Conditions,Clouds,dailyrainin,SolarRadiationWatts/m^2,SoftwareType,DateUTC
2013-01-21 00:03:00,9.0,5.0,-100.00,SE,142,4.0,11.0,85,0.00,,,0.00,70.000000,,2013-01-21 07:03:00,
2013-01-21 00:13:00,9.0,5.0,-100.00,SE,142,4.0,11.0,85,0.00,,,0.00,70.000000,,2013-01-21 07:13:00,
2013-01-21 00:22:00,9.0,5.0,-100.00,SE,142,4.0,11.0,85,0.00,,,0.00,70.000000,,2013-01-21 07:22:00,
2013-01-21 00:33:00,9.0,5.0,-100.00,SE,142,4.0,11.0,85,0.00,,,0.00,70.000000,,2013-01-21 07:33:00,
2013-01-21 00:53:00,9.0,5.0,-100.00,SE,125,4.0,7.0,85,0.00,,,0.00,78.000000,,2013-01-21 07:53:00,
2013-01-21 01:03:00,9.0,5.0,-100.00,SE,125,4.0,7.0,85,0.00,,,0.00,78.000000,,2013-01-21 08:03:00,
2013-01-21 01:13:00,9.0,5.0,-100.00,SE,125,4.0,7.0,85,0.00,,,0.00,78.000000,,2013-01-21 08:13:00,
2013-01-21 01:23:00,9.0,5.0,-100.00,SE,125,4.0,7.0,85,0.00,,,0.00,78.000000,,2013-01-21 08:23:00,
2013-01-21 01:32:00,9.0,5.0,-100.00,SE,125,4.0,7.0,85,0.00,,,0.00,78.000000,,2013-01-21 08:32:00,
2013-01-21 01:53:00,9.0,5.0,-100.00,ESE,122,2.0,7.0,85,0.00,,,0.00,84.000000,,2013-01-21 08:53:00,
2013-01-21 02:03:00,9.0,5.0,-100.00,ESE,122,2.0,7.0,85,0.00,,,0.00,84.000000,,2013-01-21 09:03:00,
2013-01-21 02:12:00,9.0,5.0,-100.00,ESE,122,2.0,7.0,85,0.00,,,0.00,84.000000,,2013-01-21 09:12:00,
2013-01-21 02:23:00,9.0,5.0,-100.00,ESE,122,2.0,7.0,85,0.00,,,0.00,84.000000,,2013-01-21 09:23:00,
2013-01-21 02:33:00,9.0,5.0,-100.00,ESE,122,2.0,7.0,85,0.00,,,0.00,84.000000,,2013-01-21 09:33:00,
2013-01-21 02:53:00,8.0,4.0,-100.00,South,172,1.0,7.0,85,0.00,,,0.00,87.000000,,2013-01-21 09:53:00,
2013-01-21 03:02:00,8.0,4.0,-100.00,South,172,1.0,7.0,85,0.00,,,0.00,87.000000,,2013-01-21 10:02:00,
2013-01-21 03:12:00,8.0,4.0,-100.00,South,172,1.0,7.0,85,0.00,,,0.00,87.000000,,2013-01-21 10:12:00,
2013-01-21 03:22:00,8.0,4.0,-100.00,South,172,1.0,7.0,85,0.00,,,0.00,87.000000,,2013-01-21 10:22:00,
2013-01-21 03:32:00,8.0,4.0,-100.00,South,172,1.0,7.0,85,0.00,,,0.00,87.000000,,2013-01-21 10:32:00,
2013-01-21 03:53:00,12.0,9.0,-100.00,SSW,193,3.0,9.0,88,0.00,,,0.00,108.000000,,2013-01-21 10:53:00,
2013-01-21 04:03:00,12.0,9.0,-100.00,SSW,193,3.0,9.0,88,0.00,,,0.00,108.000000,,2013-01-21 11:03:00,
2013-01-21 04:13:00,12.0,9.0,-100.00,SSW,193,3.0,9.0,88,0.00,,,0.00,108.000000,,2013-01-21 11:13:00,
2013-01-21 04:23:00,12.0,9.0,-100.00,SSW,193,3.0,9.0,88,0.00,,,0.00,108.000000,,2013-01-21 11:23:00,
2013-01-21 04:33:00,12.0,9.0,-100.00,SSW,193,3.0,9.0,88,0.00,,,0.00,108.000000,,2013-01-21 11:33:00,
2013-01-21 05:02:00,16.0,13.0,-100.00,West,269,6.0,12.0,87,0.00,,,0.00,124.000000,,2013-01-21 12:02:00,
2013-01-21 05:12:00,16.0,13.0,-100.00,West,269,6.0,12.0,87,0.00,,,0.00,124.000000,,2013-01-21 12:12:00,
2013-01-21 05:22:00,16.0,13.0,-100.00,West,269,6.0,12.0,87,0.00,,,0.00,124.000000,,2013-01-21 12:22:00,
2013-01-21 05:32:00,16.0,13.0,-100.00,West,269,6.0,12.0,87,0.00,,,0.00,124.000000,,2013-01-21 12:32:00,
2013-01-21 05:53:00,18.0,12.0,-100.00,NE,40,3.0,19.0,77,0.00,,,0.00,118.000000,,2013-01-21 12:53:00,
2013-01-21 06:03:00,18.0,12.0,-100.00,NE,40,3.0,19.0,77,0.00,,,0.00,118.000000,,2013-01-21 13:03:00,
2013-01-21 06:13:00,18.0,12.0,-100.00,NE,40,3.0,19.0,77,0.00,,,0.00,118.000000,,2013-01-21 13:13:00,
2013-01-21 06:23:00,18.0,12.0,-100.00,NE,40,3.0,19.0,77,0.00,,,0.00,118.000000,,2013-01-21 13:23:00,
2013-01-21 06:33:00,18.0,12.0,-100.00,NE,40,3.0,19.0,77,0.00,,,0.00,118.000000,,2013-01-21 13:33:00,
2013-01-21 06:54:00,12.0,9.0,-100.00,SE,138,2.0,10.0,87,0.00,,,0.00,77.000000,,2013-01-21 13:54:00,
2013-01-21 07:03:00,12.0,9.0,-100.00,SE,138,2.0,10.0,87,0.00,,,0.00,77.000000,,2013-01-21 14:03:00,
2013-01-21 07:12:00,12.0,9.0,-100.00,SE,138,2.0,10.0,87,0.00,,,0.00,77.000000,,2013-01-21 14:12:00,
2013-01-21 07:23:00,12.0,9.0,-100.00,SE,138,2.0,10.0,87,0.00,,,0.00,77.000000,,2013-01-21 14:23:00,
2013-01-21 07:32:00,12.0,9.0,-100.00,SE,138,2.0,10.0,87,0.00,,,0.00,77.000000,,2013-01-21 14:32:00,
2013-01-21 07:53:00,8.0,5.0,-100.00,SE,136,2.0,9.0,87,0.00,,,0.00,70.000000,,2013-01-21 14:53:00,
2013-01-21 08:03:00,8.0,5.0,-100.00,SE,136,2.0,9.0,87,0.00,,,0.00,70.000000,,2013-01-21 15:03:00,
2013-01-21 08:13:00,8.0,5.0,-100.00,SE,136,2.0,9.0,87,0.00,,,0.00,70.000000,,2013-01-21 15:13:00,
2013-01-21 08:23:00,8.0,5.0,-100.00,SE,136,2.0,9.0,87,0.00,,,0.00,70.000000,,2013-01-21 15:23:00,
2013-01-21 08:33:00,8.0,5.0,-100.00,SE,136,2.0,9.0,87,0.00,,,0.00,70.000000,,2013-01-21 15:33:00,
2013-01-21 08:53:00,7.0,4.0,-100.00,East,86,3.0,6.0,86,0.00,,,0.00,107.000000,,2013-01-21 15:53:00,
2013-01-21 09:03:00,7.0,4.0,-100.00,East,86,3.0,6.0,86,0.00,,,0.00,107.000000,,2013-01-21 16:03:00,
2013-01-21 09:12:00,7.0,4.0,-100.00,East,86,3.0,6.0,86,0.00,,,0.00,107.000000,,2013-01-21 16:12:00,
2013-01-21 09:23:00,7.0,4.0,-100.00,East,86,3.0,6.0,86,0.00,,,0.00,107.000000,,2013-01-21 16:23:00,
2013-01-21 09:33:00,7.0,4.0,-100.00,East,86,3.0,6.0,86,0.00,,,0.00,107.000000,,2013-01-21 16:33:00,
2013-01-21 09:53:00,9.0,6.0,-100.00,NE,42,2.0,8.0,86,0.00,,,0.00,132.000000,,2013-01-21 16:53:00,
2013-01-21 10:03:00,9.0,6.0,-100.00,NE,42,2.0,8.0,86,0.00,,,0.00,132.000000,,2013-01-21 17:03:00,
2013-01-21 10:12:00,9.0,6.0,-100.00,NE,42,2.0,8.0,86,0.00,,,0.00,132.000000,,2013-01-21 17:12:00,
2013-01-21 10:23:00,9.0,6.0,-100.00,NE,42,2.0,8.0,86,0.00,,,0.00,132.000000,,2013-01-21 17:23:00,
2013-01-21 10:33:00,9.0,6.0,-100.00,NE,42,2.0,8.0,86,0.00,,,0.00,132.000000,,2013-01-21 17:33:00,
2013-01-21 10:53:00,14.0,10.0,-100.00,SE,140,3.0,6.0,83,0.00,,,0.00,176.000000,,2013-01-21 17:53:00,
2013-01-21 11:03:00,14.0,10.0,-100.00,SE,140,3.0,6.0,83,0.00,,,0.00,176.000000,,2013-01-21 18:03:00,
2013-01-21 11:12:00,14.0,10.0,-100.00,SE,140,3.0,6.0,83,0.00,,,0.00,176.000000,,2013-01-21 18:12:00,
2013-01-21 11:22:00,14.0,10.0,-100.00,SE,140,3.0,6.0,83,0.00,,,0.00,176.000000,,2013-01-21 18:22:00,
2013-01-21 11:33:00,14.0,10.0,-100.00,SE,140,3.0,6.0,83,0.00,,,0.00,176.000000,,2013-01-21 18:33:00,
2013-01-21 11:53:00,14.0,10.0,-100.00,ESE,122,5.0,7.0,83,0.00,,,0.00,195.000000,,2013-01-21 18:53:00,
2013-01-21 12:03:00,14.0,10.0,-100.00,ESE,122,5.0,7.0,83,0.00,,,0.00,195.000000,,2013-01-21 19:03:00,
2013-01-21 12:12:00,14.0,10.0,-100.00,ESE,122,5.0,7.0,83,0.00,,,0.00,195.000000,,2013-01-21 19:12:00,
2013-01-21 12:22:00,14.0,10.0,-100.00,ESE,122,5.0,7.0,83,0.00,,,0.00,195.000000,,2013-01-21 19:22:00,
2013-01-21 12:33:00,14.0,10.0,-100.00,ESE,122,5.0,7.0,83,0.00,,,0.00,195.000000,,2013-01-21 19:33:00,
2013-01-21 12:53:00,15.0,11.0,-100.00,SE,133,5.0,9.0,82,0.00,,,0.00,141.000000,,2013-01-21 19:53:00,
2013-01-21 13:03:00,15.0,11.0,-100.00,SE,133,5.0,9.0,82,0.00,,,0.00,141.000000,,2013-01-21 20:03:00,
2013-01-21 13:12:00,15.0,11.0,-100.00,SE,133,5.0,9.0,82,0.00,,,0.00,141.000000,,2013-01-21 20:12:00,
2013-01-21 13:23:00,15.0,11.0,-100.00,SE,133,5.0,9.0,82,0.00,,,0.00,141.000000,,2013-01-21 20:23:00,
2013-01-21 13:33:00,15.0,11.0,-100.00,SE,133,5.0,9.0,82,0.00,,,0.00,141.000000,,2013-01-21 20:33:00,
2013-01-21 13:53:00,16.0,12.0,-100.00,SE,130,6.0,10.0,84,0.00,,,0.00,104.000000,,2013-01-21 20:53:00,
2013-01-21 14:04:00,16.0,12.0,-100.00,SE,130,6.0,10.0,84,0.00,,,0.00,104.000000,,2013-01-21 21:04:00,
2013-01-21 14:12:00,16.0,12.0,-100.00,SE,130,6.0,10.0,84,0.00,,,0.00,104.000000,,2013-01-21 21:12:00,
2013-01-21 14:23:00,16.0,12.0,-100.00,SE,130,6.0,10.0,84,0.00,,,0.00,104.000000,,2013-01-21 21:23:00,
2013-01-21 14:33:00,16.0,12.0,-100.00,SE,130,6.0,10.0,84,0.00,,,0.00,104.000000,,2013-01-21 21:33:00,
2013-01-21 15:03:00,18.0,13.0,-100.00,SSE,150,7.0,14.0,82,0.00,,,0.00,67.000000,,2013-01-21 22:03:00,
2013-01-21 15:12:00,18.0,13.0,-100.00,SSE,150,7.0,14.0,82,0.00,,,0.00,67.000000,,2013-01-21 22:12:00,
2013-01-21 15:23:00,18.0,13.0,-100.00,SSE,150,7.0,14.0,82,0.00,,,0.00,67.000000,,2013-01-21 22:23:00,
2013-01-21 15:33:00,18.0,13.0,-100.00,SSE,150,7.0,14.0,82,0.00,,,0.00,67.000000,,2013-01-21 22:33:00,
2013-01-21 15:53:00,20.0,14.0,-100.00,ESE,102,4.0,11.0,78,0.00,,,0.00,44.000000,,2013-01-21 22:53:00,
2013-01-21 16:03:00,20.0,14.0,-100.00,ESE,102,4.0,11.0,78,0.00,,,0.00,44.000000,,2013-01-21 23:03:00,
2013-01-21 16:13:00,20.0,14.0,-100.00,ESE,102,4.0,11.0,78,0.00,,,0.00,44.000000,,2013-01-21 23:13:00,
2013-01-21 16:23:00,20.0,14.0,-100.00,ESE,102,4.0,11.0,78,0.00,,,0.00,44.000000,,2013-01-21 23:23:00,
2013-01-21 16:33:00,20.0,14.0,-100.00,ESE,102,4.0,11.0,78,0.00,,,0.00,44.000000,,2013-01-21 23:33:00,
2013-01-21 17:03:00,17.0,12.0,-100.00,SE,134,5.0,9.0,81,0.00,,,0.00,17.000000,,2013-01-22 00:03:00,
2013-01-21 17:12:00,17.0,12.0,-100.00,SE,134,5.0,9.0,81,0.00,,,0.00,17.000000,,2013-01-22 00:12:00,
2013-01-21 17:22:00,17.0,12.0,-100.00,SE,134,5.0,9.0,81,0.00,,,0.00,17.000000,,2013-01-22 00:22:00,
2013-01-21 17:33:00,17.0,12.0,-100.00,SE,134,5.0,9.0,81,0.00,,,0.00,17.000000,,2013-01-22 00:33:00,
2013-01-21 18:02:00,13.0,10.0,-100.00,SSW,195,3.0,7.0,89,0.00,,,0.00,28.000000,,2013-01-22 01:02:00,
2013-01-21 18:12:00,13.0,10.0,-100.00,SSW,195,3.0,7.0,89,0.00,,,0.00,28.000000,,2013-01-22 01:12:00,
2013-01-21 18:23:00,13.0,10.0,-100.00,SSW,195,3.0,7.0,89,0.00,,,0.00,28.000000,,2013-01-22 01:23:00,
2013-01-21 18:32:00,13.0,10.0,-100.00,SSW,195,3.0,7.0,89,0.00,,,0.00,28.000000,,2013-01-22 01:32:00,
2013-01-21 19:02:00,13.0,10.0,-100.00,SSE,164,2.0,8.0,88,0.00,,,0.00,49.000000,,2013-01-22 02:02:00,
2013-01-21 19:12:00,13.0,10.0,-100.00,SSE,164,2.0,8.0,88,0.00,,,0.00,49.000000,,2013-01-22 02:12:00,
2013-01-21 19:22:00,13.0,10.0,-100.00,SSE,164,2.0,8.0,88,0.00,,,0.00,49.000000,,2013-01-22 02:22:00,
2013-01-21 19:32:00,13.0,10.0,-100.00,SSE,164,2.0,8.0,88,0.00,,,0.00,49.000000,,2013-01-22 02:32:00,
2013-01-21 19:53:00,14.0,10.0,-100.00,NNE,30,3.0,12.0,84,0.00,,,0.00,57.000000,,2013-01-22 02:53:00,
2013-01-21 20:03:00,14.0,10.0,-100.00,NNE,30,3.0,12.0,84,0.00,,,0.00,57.000000,,2013-01-22 03:03:00,
2013-01-21 20:12:00,14.0,10.0,-100.00,NNE,30,3.0,12.0,84,0.00,,,0.00,57.000000,,2013-01-22 03:12:00,
2013-01-21 20:22:00,14.0,10.0,-100.00,NNE,30,3.0,12.0,84,0.00,,,0.00,57.000000,,2013-01-22 03:22:00,
2013-01-21 20:32:00,14.0,10.0,-100.00,NNE,30,3.0,12.0,84,0.00,,,0.00,57.000000,,2013-01-22 03:32:00,
2013-01-21 20:53:00,13.0,10.0,-100.00,NW,313,2.0,6.0,88,0.00,,,0.00,44.000000,,2013-01-22 03:53:00,
2013-01-21 21:03:00,13.0,10.0,-100.00,NW,313,2.0,6.0,88,0.00,,,0.00,44.000000,,2013-01-22 04:03:00,
2013-01-21 21:12:00,13.0,10.0,-100.00,NW,313,2.0,6.0,88,0.00,,,0.00,44.000000,,2013-01-22 04:12:00,
2013-01-21 21:22:00,13.0,10.0,-100.00,NW,313,2.0,6.0,88,0.00,,,0.00,44.000000,,2013-01-22 04:22:00,
2013-01-21 21:32:00,13.0,10.0,-100.00,NW,313,2.0,6.0,88,0.00,,,0.00,44.000000,,2013-01-22 04:32:00,
2013-01-21 21:52:00,24.0,12.0,-100.00,NW,308,3.0,9.0,59,0.00,,,0.00,72.000000,,2013-01-22 04:52:00,
2013-01-21 22:04:00,24.0,12.0,-100.00,NW,308,3.0,9.0,59,0.00,,,0.00,72.000000,,2013-01-22 05:04:00,
2013-01-21 22:12:00,24.0,12.0,-100.00,NW,308,3.0,9.0,59,0.00,,,0.00,72.000000,,2013-01-22 05:12:00,
2013-01-21 22:22:00,24.0,12.0,-100.00,NW,308,3.0,9.0,59,0.00,,,0.00,72.000000,,2013-01-22 05:22:00,
2013-01-21 22:32:00,24.0,12.0,-100.00,NW,308,3.0,9.0,59,0.00,,,0.00,72.000000,,2013-01-22 05:32:00,
2013-01-21 23:02:00,25.0,13.0,-100.00,WNW,299,1.0,18.0,60,0.00,,,0.00,128.000000,,2013-01-22 06:02:00,
2013-01-21 23:12:00,25.0,13.0,-100.00,WNW,299,1.0,18.0,60,0.00,,,0.00,128.000000,,2013-01-22 06:12:00,
2013-01-21 23:22:00,25.0,13.0,-100.00,WNW,299,1.0,18.0,60,0.00,,,0.00,128.000000,,2013-01-22 06:22:00,
2013-01-21 23:32:00,25.0,13.0,-100.00,WNW,299,1.0,18.0,60,0.00,,,0.00,128.000000,,2013-01-22 06:32:00,
2013-01-21 23:53:00,30.0,11.0,-100.00,WNW,293,4.0,11.0,45,0.00,,,0.00,129.000000,,2013-01-22 06:53:00,